createdAt,value
2018-06-01T00:00:33.039Z,62.05
2018-06-01T00:01:33.068Z,62.12
2018-06-01T00:02:33.099Z,62.05
2018-06-01T00:03:33.129Z,62.02
2018-06-01T00:04:33.173Z,62.21
2018-06-01T00:05:33.189Z,62.31
2018-06-01T00:06:33.219Z,61.92
2018-06-01T00:07:33.247Z,61.73
2018-06-01T00:08:33.278Z,61.92
2018-06-01T00:09:33.309Z,61.83
2018-06-01T00:10:33.334Z,61.92
2018-06-01T00:11:33.367Z,61.63
2018-06-01T00:12:33.394Z,61.92
2018-06-01T00:13:33.420Z,62.02
2018-06-01T00:14:33.453Z,62.12
2018-06-01T00:15:33.493Z,62.21
2018-06-01T00:16:33.514Z,62.12
2018-06-01T00:17:33.539Z,61.92
2018-06-01T00:18:33.579Z,62.21
2018-06-01T00:19:33.598Z,62.31
2018-06-01T00:20:33.627Z,61.99
2018-06-01T00:21:33.661Z,62.12
2018-06-01T00:22:33.702Z,62.40
2018-06-01T00:23:33.721Z,62.89
2018-06-01T00:24:33.748Z,62.40
2018-06-01T00:25:33.773Z,62.18
2018-06-01T00:26:33.808Z,62.21
2018-06-01T00:27:33.834Z,62.08
2018-06-01T00:28:33.862Z,62.37
2018-06-01T00:29:33.895Z,61.80
2018-06-01T00:30:33.923Z,61.80
2018-06-01T00:31:33.952Z,62.28
2018-06-01T00:32:33.978Z,62.08
2018-06-01T00:33:34.009Z,62.76
2018-06-01T00:34:34.043Z,62.60
2018-06-01T00:35:34.068Z,62.18
2018-06-01T00:36:34.098Z,62.37
2018-06-01T00:37:34.128Z,62.66
2018-06-01T00:38:34.162Z,62.66
2018-06-01T00:39:34.185Z,62.66
2018-06-01T00:40:34.213Z,63.05
2018-06-01T00:41:34.242Z,62.66
2018-06-01T00:42:34.274Z,63.05
2018-06-01T00:43:34.303Z,63.24
2018-06-01T00:44:34.333Z,63.24
2018-06-01T00:45:34.358Z,62.95
2018-06-01T00:46:34.393Z,62.47
2018-06-01T00:47:34.432Z,62.37
2018-06-01T00:48:34.451Z,62.44
2018-06-01T00:49:34.482Z,63.12
2018-06-01T00:50:34.510Z,63.12
2018-06-01T00:51:34.541Z,63.40
2018-06-01T00:52:34.566Z,63.31
2018-06-01T00:53:34.594Z,63.60
2018-06-01T00:54:34.622Z,63.02
2018-06-01T00:55:34.653Z,63.02
2018-06-01T00:56:34.685Z,62.92
2018-06-01T00:57:34.707Z,63.02
2018-06-01T00:58:34.737Z,63.21
2018-06-01T00:59:34.771Z,63.02
2018-06-01T01:00:34.799Z,62.92
2018-06-01T01:01:34.831Z,63.31
2018-06-01T01:02:34.857Z,63.31
2018-06-01T01:03:34.892Z,63.02
2018-06-01T01:04:34.916Z,62.86
2018-06-01T01:05:34.946Z,62.47
2018-06-01T01:06:34.975Z,62.63
2018-06-01T01:07:35.001Z,62.54
2018-06-01T01:08:35.032Z,63.31
2018-06-01T01:09:35.070Z,63.50
2018-06-01T01:10:35.091Z,63.50
2018-06-01T01:11:35.117Z,63.21
2018-06-01T01:12:35.152Z,63.12
2018-06-01T01:13:35.179Z,62.54
2018-06-01T01:14:35.207Z,62.44
2018-06-01T01:15:35.237Z,62.73
2018-06-01T01:16:35.263Z,62.54
2018-06-01T01:17:35.293Z,62.54
2018-06-01T01:18:35.323Z,62.73
2018-06-01T01:19:35.353Z,62.08
2018-06-01T01:20:35.382Z,62.82
2018-06-01T01:21:35.407Z,62.63
2018-06-01T01:22:35.435Z,62.63
2018-06-01T01:23:35.469Z,63.12
2018-06-01T01:24:35.490Z,62.92
2018-06-01T01:25:35.522Z,62.82
2018-06-01T01:26:35.555Z,63.02
2018-06-01T01:27:35.579Z,63.02
2018-06-01T01:28:35.610Z,62.82
2018-06-01T01:29:35.643Z,62.92
2018-06-01T01:30:35.674Z,63.21
2018-06-01T01:31:35.698Z,62.44
2018-06-01T01:32:35.724Z,62.82
2018-06-01T01:33:35.755Z,62.89
2018-06-01T01:34:35.785Z,63.09
2018-06-01T01:35:35.819Z,63.50
2018-06-01T01:36:35.843Z,63.40
2018-06-01T01:37:35.870Z,63.67
2018-06-01T01:38:35.907Z,63.28
2018-06-01T01:39:35.934Z,63.67
2018-06-01T01:40:35.957Z,64.24
2018-06-01T01:41:35.988Z,63.47
2018-06-01T01:42:36.015Z,63.76
2018-06-01T01:43:36.044Z,63.95
2018-06-01T01:44:36.069Z,64.63
2018-06-01T01:45:36.104Z,64.24
2018-06-01T01:46:36.129Z,64.34
2018-06-01T01:47:36.162Z,63.85
2018-06-01T01:48:36.194Z,64.15
2018-06-01T01:49:36.214Z,63.92
2018-06-01T01:50:36.250Z,64.59
2018-06-01T01:51:36.274Z,64.98
2018-06-01T01:52:36.303Z,64.11
2018-06-01T01:53:36.329Z,64.40
2018-06-01T01:54:36.365Z,64.69
2018-06-01T01:55:36.391Z,64.40
2018-06-01T01:56:36.421Z,64.11
2018-06-01T01:57:36.449Z,64.69
2018-06-01T01:58:36.474Z,64.40
2018-06-01T01:59:36.511Z,64.02
2018-06-01T02:00:36.535Z,64.79
2018-06-01T02:01:36.565Z,64.50
2018-06-01T02:02:36.594Z,64.69
2018-06-01T02:03:36.620Z,64.50
2018-06-01T02:04:36.652Z,64.50
2018-06-01T02:05:36.680Z,64.40
2018-06-01T02:06:36.704Z,64.40
2018-06-01T02:07:36.735Z,64.50
2018-06-01T02:08:36.764Z,64.79
2018-06-01T02:09:36.795Z,64.79
2018-06-01T02:10:36.820Z,65.08
2018-06-01T02:11:36.850Z,65.08
2018-06-01T02:12:36.883Z,64.98
2018-06-01T02:13:36.911Z,64.69
2018-06-01T02:14:36.947Z,64.59
2018-06-01T02:15:36.964Z,64.40
2018-06-01T02:16:36.995Z,64.50
2018-06-01T02:17:37.024Z,64.50
2018-06-01T02:18:37.049Z,64.11
2018-06-01T02:19:37.083Z,64.40
2018-06-01T02:20:37.107Z,64.02
2018-06-01T02:21:37.134Z,64.21
2018-06-01T02:22:37.164Z,63.82
2018-06-01T02:23:37.194Z,63.82
2018-06-01T02:24:37.223Z,64.11
2018-06-01T02:25:37.253Z,64.21
2018-06-01T02:26:37.279Z,64.11
2018-06-01T02:27:37.309Z,64.02
2018-06-01T02:28:37.340Z,63.54
2018-06-01T02:29:37.369Z,64.21
2018-06-01T02:30:37.393Z,64.50
2018-06-01T02:31:37.430Z,63.82
2018-06-01T02:32:37.456Z,63.82
2018-06-01T02:33:37.492Z,64.31
2018-06-01T02:34:37.509Z,64.50
2018-06-01T02:35:37.539Z,64.50
2018-06-01T02:36:37.575Z,64.98
2018-06-01T02:37:37.605Z,64.69
2018-06-01T02:38:37.629Z,65.47
2018-06-01T02:39:37.661Z,65.17
2018-06-01T02:40:37.683Z,64.79
2018-06-01T02:41:37.716Z,64.69
2018-06-01T02:42:37.744Z,64.31
2018-06-01T02:43:37.769Z,64.21
2018-06-01T02:44:37.799Z,64.31
2018-06-01T02:45:37.822Z,64.79
2018-06-01T02:46:37.852Z,64.50
2018-06-01T02:47:37.885Z,64.79
2018-06-01T02:48:37.911Z,64.89
2018-06-01T02:49:37.942Z,65.27
2018-06-01T02:50:37.976Z,65.17
2018-06-01T02:51:38.002Z,65.53
2018-06-01T02:52:38.023Z,65.24
2018-06-01T02:53:38.053Z,65.47
2018-06-01T02:54:38.082Z,65.33
2018-06-01T02:55:38.113Z,65.33
2018-06-01T02:56:38.146Z,65.14
2018-06-01T02:57:38.172Z,66.01
2018-06-01T02:58:38.198Z,65.95
2018-06-01T02:59:38.233Z,65.66
2018-06-01T03:00:38.259Z,64.98
2018-06-01T03:01:38.287Z,65.75
2018-06-01T03:02:38.316Z,65.08
2018-06-01T03:03:38.343Z,65.37
2018-06-01T03:04:38.372Z,65.24
2018-06-01T03:05:38.401Z,65.14
2018-06-01T03:06:38.429Z,65.24
2018-06-01T03:07:38.453Z,65.33
2018-06-01T03:08:38.482Z,65.53
2018-06-01T03:09:38.513Z,65.75
2018-06-01T03:10:38.540Z,65.33
2018-06-01T03:11:38.569Z,65.47
2018-06-01T03:12:38.601Z,65.37
2018-06-01T03:13:38.627Z,65.37
2018-06-01T03:14:38.658Z,65.53
2018-06-01T03:15:38.687Z,65.33
2018-06-01T03:16:38.711Z,65.91
2018-06-01T03:17:38.749Z,66.20
2018-06-01T03:18:38.767Z,65.91
2018-06-01T03:19:38.797Z,66.30
2018-06-01T03:20:38.828Z,65.24
2018-06-01T03:21:38.858Z,65.72
2018-06-01T03:22:38.881Z,65.43
2018-06-01T03:23:38.911Z,65.72
2018-06-01T03:24:38.941Z,65.53
2018-06-01T03:25:38.967Z,65.72
2018-06-01T03:26:38.996Z,66.11
2018-06-01T03:27:39.027Z,66.01
2018-06-01T03:28:39.050Z,66.30
2018-06-01T03:29:39.082Z,66.01
2018-06-01T03:30:39.111Z,66.20
2018-06-01T03:31:39.146Z,65.91
2018-06-01T03:32:39.167Z,66.39
2018-06-01T03:33:39.200Z,66.39
2018-06-01T03:34:39.226Z,66.69
2018-06-01T03:35:39.251Z,66.88
2018-06-01T03:36:39.285Z,66.11
2018-06-01T03:37:39.315Z,66.01
2018-06-01T03:38:39.341Z,66.11
2018-06-01T03:39:39.370Z,65.91
2018-06-01T03:40:39.400Z,65.72
2018-06-01T03:41:39.430Z,65.72
2018-06-01T03:42:39.452Z,65.81
2018-06-01T03:43:39.480Z,66.01
2018-06-01T03:44:39.511Z,66.33
2018-06-01T03:45:39.536Z,65.95
2018-06-01T03:46:39.567Z,66.04
2018-06-01T03:47:39.595Z,65.47
2018-06-01T03:48:39.625Z,66.01
2018-06-01T03:49:39.653Z,66.78
2018-06-01T03:50:39.679Z,66.88
2018-06-01T03:51:39.714Z,66.49
2018-06-01T03:52:39.749Z,66.69
2018-06-01T03:53:39.767Z,67.07
2018-06-01T03:54:39.799Z,66.69
2018-06-01T03:55:39.826Z,66.78
2018-06-01T03:56:39.850Z,66.97
2018-06-01T03:57:39.884Z,66.88
2018-06-01T03:58:39.911Z,66.20
2018-06-01T03:59:39.940Z,66.88
2018-06-01T04:00:39.965Z,66.97
2018-06-01T04:01:39.995Z,66.82
2018-06-01T04:02:40.027Z,66.91
2018-06-01T04:03:40.055Z,66.78
2018-06-01T04:04:40.085Z,66.78
2018-06-01T04:05:40.110Z,65.85
2018-06-01T04:06:40.140Z,66.14
2018-06-01T04:07:40.170Z,66.04
2018-06-01T04:08:40.196Z,66.04
2018-06-01T04:09:40.226Z,66.20
2018-06-01T04:10:40.251Z,66.24
2018-06-01T04:11:40.286Z,66.82
2018-06-01T04:12:40.313Z,66.14
2018-06-01T04:13:40.339Z,67.00
2018-06-01T04:14:40.369Z,66.78
2018-06-01T04:15:40.396Z,66.82
2018-06-01T04:16:40.425Z,66.91
2018-06-01T04:17:40.455Z,66.91
2018-06-01T04:18:40.486Z,67.07
2018-06-01T04:19:40.510Z,67.30
2018-06-01T04:20:40.539Z,66.91
2018-06-01T04:21:40.569Z,66.72
2018-06-01T04:22:40.596Z,66.62
2018-06-01T04:23:40.627Z,66.72
2018-06-01T04:24:40.650Z,66.62
2018-06-01T04:25:40.679Z,66.52
2018-06-01T04:26:40.709Z,65.75
2018-06-01T04:27:40.791Z,65.95
2018-06-01T04:28:40.769Z,66.24
2018-06-01T04:29:40.805Z,65.95
2018-06-01T04:30:40.830Z,66.24
2018-06-01T04:31:40.854Z,66.33
2018-06-01T04:32:40.879Z,66.33
2018-06-01T04:33:40.908Z,66.62
2018-06-01T04:34:40.939Z,66.33
2018-06-01T04:35:40.973Z,66.04
2018-06-01T04:36:40.995Z,65.95
2018-06-01T04:37:41.029Z,66.33
2018-06-01T04:38:41.055Z,66.72
2018-06-01T04:39:41.084Z,66.72
2018-06-01T04:40:41.113Z,66.24
2018-06-01T04:41:41.143Z,66.91
2018-06-01T04:42:41.170Z,66.62
2018-06-01T04:43:41.200Z,67.00
2018-06-01T04:44:41.225Z,67.00
2018-06-01T04:45:41.254Z,67.20
2018-06-01T04:46:41.284Z,67.30
2018-06-01T04:47:41.309Z,67.20
2018-06-01T04:48:41.344Z,67.10
2018-06-01T04:49:41.371Z,67.10
2018-06-01T04:50:41.399Z,66.97
2018-06-01T04:51:41.424Z,67.26
2018-06-01T04:52:41.457Z,67.58
2018-06-01T04:53:41.484Z,67.55
2018-06-01T04:54:41.509Z,67.49
2018-06-01T04:55:41.539Z,67.49
2018-06-01T04:56:41.568Z,67.78
2018-06-01T04:57:41.598Z,66.82
2018-06-01T04:58:41.630Z,67.49
2018-06-01T04:59:41.657Z,67.20
2018-06-01T05:00:41.683Z,67.30
2018-06-01T05:01:41.716Z,67.10
2018-06-01T05:02:41.742Z,66.82
2018-06-01T05:03:41.768Z,66.72
2018-06-01T05:04:41.799Z,66.52
2018-06-01T05:05:41.829Z,66.72
2018-06-01T05:06:41.858Z,66.62
2018-06-01T05:07:41.884Z,66.33
2018-06-01T05:08:41.917Z,66.24
2018-06-01T05:09:41.943Z,66.14
2018-06-01T05:10:41.973Z,65.95
2018-06-01T05:11:41.998Z,66.24
2018-06-01T05:12:42.027Z,65.95
2018-06-01T05:13:42.053Z,66.14
2018-06-01T05:14:42.083Z,66.04
2018-06-01T05:15:42.113Z,66.24
2018-06-01T05:16:42.208Z,66.36
2018-06-01T05:17:42.167Z,66.82
2018-06-01T05:18:42.200Z,66.04
2018-06-01T05:19:42.228Z,66.24
2018-06-01T05:20:42.257Z,66.14
2018-06-01T05:21:42.286Z,66.14
2018-06-01T05:22:42.315Z,66.62
2018-06-01T05:23:42.344Z,66.24
2018-06-01T05:24:42.370Z,65.95
2018-06-01T05:25:42.398Z,66.24
2018-06-01T05:26:42.430Z,66.17
2018-06-01T05:27:42.457Z,65.85
2018-06-01T05:28:42.488Z,65.50
2018-06-01T05:29:42.514Z,66.08
2018-06-01T05:30:42.547Z,65.30
2018-06-01T05:31:42.577Z,65.59
2018-06-01T05:32:42.606Z,65.11
2018-06-01T05:33:42.632Z,65.69
2018-06-01T05:34:42.661Z,65.59
2018-06-01T05:35:42.691Z,65.50
2018-06-01T05:36:42.718Z,66.01
2018-06-01T05:37:42.746Z,65.34
2018-06-01T05:38:42.771Z,65.63
2018-06-01T05:39:42.802Z,65.53
2018-06-01T05:40:42.831Z,65.05
2018-06-01T05:41:42.860Z,64.95
2018-06-01T05:42:42.886Z,64.86
2018-06-01T05:43:42.920Z,64.76
2018-06-01T05:44:42.943Z,64.86
2018-06-01T05:45:42.976Z,64.66
2018-06-01T05:46:43.006Z,65.72
2018-06-01T05:47:43.033Z,65.43
2018-06-01T05:48:43.066Z,65.05
2018-06-01T05:49:43.090Z,65.05
2018-06-01T05:50:43.116Z,65.53
2018-06-01T05:51:43.146Z,65.43
2018-06-01T05:52:43.176Z,64.98
2018-06-01T05:53:43.203Z,64.76
2018-06-01T05:54:43.241Z,65.17
2018-06-01T05:55:43.265Z,64.79
2018-06-01T05:56:43.290Z,64.50
2018-06-01T05:57:43.322Z,64.11
2018-06-01T05:58:43.352Z,64.21
2018-06-01T05:59:43.382Z,64.01
2018-06-01T06:00:43.411Z,64.11
2018-06-01T06:01:43.439Z,64.40
2018-06-01T06:02:43.465Z,63.73
2018-06-01T06:03:43.494Z,63.53
2018-06-01T06:04:43.521Z,64.69
2018-06-01T06:05:43.557Z,63.73
2018-06-01T06:06:43.580Z,63.73
2018-06-01T06:07:43.611Z,63.43
2018-06-01T06:08:43.641Z,63.53
2018-06-01T06:09:43.674Z,63.43
2018-06-01T06:10:43.696Z,63.05
2018-06-01T06:11:43.731Z,63.53
2018-06-01T06:12:43.761Z,63.24
2018-06-01T06:13:43.786Z,63.82
2018-06-01T06:14:43.817Z,63.34
2018-06-01T06:15:43.845Z,63.82
2018-06-01T06:16:43.877Z,64.34
2018-06-01T06:17:43.908Z,63.56
2018-06-01T06:18:43.959Z,62.89
2018-06-01T06:19:43.961Z,63.05
2018-06-01T06:20:43.993Z,63.85
2018-06-01T06:21:44.019Z,62.86
2018-06-01T06:22:44.054Z,63.34
2018-06-01T06:23:44.079Z,63.08
2018-06-01T06:24:44.115Z,63.66
2018-06-01T06:25:44.160Z,63.37
2018-06-01T06:26:44.164Z,63.08
2018-06-01T06:27:44.195Z,63.28
2018-06-01T06:28:44.220Z,63.56
2018-06-01T06:29:44.250Z,63.56
2018-06-01T06:30:44.282Z,63.47
2018-06-01T06:31:44.312Z,63.66
2018-06-01T06:32:44.340Z,63.56
2018-06-01T06:33:44.363Z,62.92
2018-06-01T06:34:44.404Z,62.92
2018-06-01T06:35:44.423Z,62.82
2018-06-01T06:36:44.453Z,62.63
2018-06-01T06:37:44.549Z,62.73
2018-06-01T06:38:44.513Z,62.44
2018-06-01T06:39:44.548Z,62.63
2018-06-01T06:40:44.574Z,62.92
2018-06-01T06:41:44.601Z,62.34
2018-06-01T06:42:44.634Z,62.82
2018-06-01T06:43:44.663Z,62.63
2018-06-01T06:44:44.690Z,62.53
2018-06-01T06:45:44.721Z,62.05
2018-06-01T06:46:44.750Z,62.44
2018-06-01T06:47:44.781Z,61.95
2018-06-01T06:48:44.803Z,61.86
2018-06-01T06:49:44.843Z,62.18
2018-06-01T06:50:44.863Z,61.95
2018-06-01T06:51:44.900Z,62.08
2018-06-01T06:52:44.924Z,61.89
2018-06-01T06:53:44.954Z,62.27
2018-06-01T06:54:44.984Z,62.37
2018-06-01T06:55:45.013Z,62.27
2018-06-01T06:56:45.044Z,61.69
2018-06-01T06:57:45.107Z,61.69
2018-06-01T06:58:45.129Z,61.98
2018-06-01T06:59:45.131Z,62.37
2018-06-01T07:00:45.166Z,61.60
2018-06-01T07:01:45.189Z,61.89
2018-06-01T07:02:45.266Z,62.27
2018-06-01T07:03:45.249Z,61.98
2018-06-01T07:04:45.278Z,61.69
2018-06-01T07:05:45.310Z,61.98
2018-06-01T07:06:45.339Z,61.89
2018-06-01T07:07:45.369Z,61.98
2018-06-01T07:08:45.394Z,62.08
2018-06-01T07:09:45.423Z,61.79
2018-06-01T07:10:45.468Z,61.98
2018-06-01T07:11:45.486Z,62.30
2018-06-01T07:12:45.515Z,62.69
2018-06-01T07:13:45.548Z,62.21
2018-06-01T07:14:45.576Z,61.82
2018-06-01T07:15:45.606Z,62.01
2018-06-01T07:16:45.632Z,62.01
2018-06-01T07:17:45.667Z,61.43
2018-06-01T07:18:45.694Z,61.33
2018-06-01T07:19:45.719Z,62.11
2018-06-01T07:20:45.747Z,62.59
2018-06-01T07:21:45.782Z,61.82
2018-06-01T07:22:45.810Z,61.05
2018-06-01T07:23:45.844Z,61.33
2018-06-01T07:24:45.868Z,61.24
2018-06-01T07:25:45.898Z,61.82
2018-06-01T07:26:45.929Z,61.92
2018-06-01T07:27:46.034Z,61.82
2018-06-01T07:28:45.991Z,62.63
2018-06-01T07:29:46.013Z,62.34
2018-06-01T07:30:46.044Z,61.85
2018-06-01T07:31:46.073Z,62.43
2018-06-01T07:32:46.104Z,61.85
2018-06-01T07:33:46.149Z,60.88
2018-06-01T07:34:46.161Z,60.78
2018-06-01T07:35:46.193Z,60.50
2018-06-01T07:36:46.222Z,61.56
2018-06-01T07:37:46.251Z,61.56
2018-06-01T07:38:46.293Z,60.69
2018-06-01T07:39:46.312Z,59.82
2018-06-01T07:40:46.348Z,60.59
2018-06-01T07:41:46.374Z,60.59
2018-06-01T07:42:46.402Z,60.98
2018-06-01T07:43:46.431Z,61.36
2018-06-01T07:44:46.458Z,60.59
2018-06-01T07:45:46.492Z,61.08
2018-06-01T07:46:46.542Z,60.40
2018-06-01T07:47:46.553Z,59.72
2018-06-01T07:48:46.586Z,60.04
2018-06-01T07:49:46.608Z,60.04
2018-06-01T07:50:46.642Z,61.01
2018-06-01T07:51:46.672Z,59.94
2018-06-01T07:52:46.703Z,60.52
2018-06-01T07:53:46.732Z,59.94
2018-06-01T07:54:46.756Z,60.04
2018-06-01T07:55:46.791Z,60.04
2018-06-01T07:56:46.825Z,60.24
2018-06-01T07:57:46.851Z,60.72
2018-06-01T07:58:46.880Z,60.72
2018-06-01T07:59:46.909Z,60.43
2018-06-01T08:00:46.939Z,59.27
2018-06-01T08:01:46.975Z,59.84
2018-06-01T08:02:46.998Z,59.94
2018-06-01T08:03:47.031Z,59.36
2018-06-01T08:04:47.057Z,59.39
2018-06-01T08:05:47.092Z,59.97
2018-06-01T08:06:47.117Z,59.49
2018-06-01T08:07:47.157Z,59.49
2018-06-01T08:08:47.179Z,59.84
2018-06-01T08:09:47.211Z,60.17
2018-06-01T08:10:47.245Z,59.75
2018-06-01T08:11:47.269Z,60.27
2018-06-01T08:12:47.300Z,59.97
2018-06-01T08:13:47.332Z,59.88
2018-06-01T08:14:47.418Z,59.78
2018-06-01T08:15:47.387Z,59.88
2018-06-01T08:16:47.421Z,59.88
2018-06-01T08:17:47.448Z,59.33
2018-06-01T08:18:47.478Z,59.78
2018-06-01T08:19:47.506Z,59.13
2018-06-01T08:20:47.539Z,59.03
2018-06-01T08:21:47.566Z,58.74
2018-06-01T08:22:47.603Z,59.13
2018-06-01T08:23:47.619Z,59.52
2018-06-01T08:24:47.659Z,58.94
2018-06-01T08:25:47.681Z,58.26
2018-06-01T08:26:47.720Z,59.61
2018-06-01T08:27:47.750Z,59.71
2018-06-01T08:28:47.772Z,59.23
2018-06-01T08:29:47.800Z,58.06
2018-06-01T08:30:47.837Z,57.87
2018-06-01T08:31:47.873Z,57.87
2018-06-01T08:32:47.895Z,58.26
2018-06-01T08:33:47.928Z,58.45
2018-06-01T08:34:47.956Z,57.87
2018-06-01T08:35:47.989Z,56.90
2018-06-01T08:36:48.016Z,57.29
2018-06-01T08:37:48.049Z,57.48
2018-06-01T08:38:48.074Z,57.68
2018-06-01T08:39:48.114Z,57.78
2018-06-01T08:40:48.142Z,57.87
2018-06-01T08:41:48.168Z,57.68
2018-06-01T08:42:48.195Z,57.90
2018-06-01T08:43:48.225Z,58.00
2018-06-01T08:44:48.254Z,58.00
2018-06-01T08:45:48.285Z,58.48
2018-06-01T08:46:48.315Z,57.61
2018-06-01T08:47:48.348Z,57.51
2018-06-01T08:48:48.374Z,57.61
2018-06-01T08:49:48.404Z,57.22
2018-06-01T08:50:48.436Z,57.32
2018-06-01T08:51:48.471Z,56.54
2018-06-01T08:52:48.498Z,56.64
2018-06-01T08:53:48.525Z,57.80
2018-06-01T08:54:48.555Z,57.03
2018-06-01T08:55:48.584Z,58.00
2018-06-01T08:56:48.614Z,57.93
2018-06-01T08:57:48.648Z,57.25
2018-06-01T08:58:48.675Z,56.96
2018-06-01T08:59:48.708Z,56.67
2018-06-01T09:00:48.760Z,56.57
2018-06-01T09:01:48.763Z,56.57
2018-06-01T09:02:48.804Z,57.25
2018-06-01T09:03:48.828Z,57.73
2018-06-01T09:04:48.860Z,56.76
2018-06-01T09:05:48.890Z,57.06
2018-06-01T09:06:48.917Z,57.25
2018-06-01T09:07:48.947Z,57.06
2018-06-01T09:08:48.979Z,57.15
2018-06-01T09:09:49.008Z,56.86
2018-06-01T09:10:49.045Z,56.28
2018-06-01T09:11:49.073Z,56.18
2018-06-01T09:12:49.100Z,55.89
2018-06-01T09:13:49.130Z,56.01
2018-06-01T09:14:49.166Z,55.92
2018-06-01T09:15:49.196Z,56.01
2018-06-01T09:16:49.285Z,55.82
2018-06-01T09:17:49.253Z,55.92
2018-06-01T09:18:49.284Z,55.63
2018-06-01T09:19:49.338Z,56.11
2018-06-01T09:20:49.342Z,56.21
2018-06-01T09:21:49.378Z,54.85
2018-06-01T09:22:49.406Z,55.24
2018-06-01T09:23:49.436Z,55.27
2018-06-01T09:24:49.468Z,56.04
2018-06-01T09:25:49.493Z,54.49
2018-06-01T09:26:49.527Z,54.90
2018-06-01T09:27:49.558Z,54.49
2018-06-01T09:28:49.587Z,54.20
2018-06-01T09:29:49.635Z,54.22
2018-06-01T09:30:49.646Z,55.10
2018-06-01T09:31:49.677Z,54.52
2018-06-01T09:32:49.708Z,54.32
2018-06-01T09:33:49.740Z,54.22
2018-06-01T09:34:49.775Z,54.52
2018-06-01T09:35:49.805Z,53.45
2018-06-01T09:36:49.842Z,53.74
2018-06-01T09:37:49.856Z,54.22
2018-06-01T09:38:49.893Z,54.52
2018-06-01T09:39:49.926Z,53.64
2018-06-01T09:40:49.957Z,53.77
2018-06-01T09:41:49.987Z,52.98
2018-06-01T09:42:50.022Z,53.08
2018-06-01T09:43:50.043Z,52.79
2018-06-01T09:44:50.076Z,53.18
2018-06-01T09:45:50.112Z,52.79
2018-06-01T09:46:50.140Z,52.89
2018-06-01T09:47:50.172Z,52.69
2018-06-01T09:48:50.203Z,53.18
2018-06-01T09:49:50.226Z,52.92
2018-06-01T09:50:50.256Z,52.31
2018-06-01T09:51:50.291Z,52.14
2018-06-01T09:52:50.316Z,52.14
2018-06-01T09:53:50.350Z,51.55
2018-06-01T09:54:50.381Z,51.17
2018-06-01T09:55:50.416Z,52.14
2018-06-01T09:56:50.446Z,52.14
2018-06-01T09:57:50.477Z,51.94
2018-06-01T09:58:50.505Z,51.65
2018-06-01T09:59:50.530Z,51.75
2018-06-01T10:00:50.560Z,51.48
2018-06-01T10:01:50.596Z,51.07
2018-06-01T10:02:50.631Z,51.58
2018-06-01T10:03:50.659Z,50.99
2018-06-01T10:04:50.685Z,51.19
2018-06-01T10:05:50.725Z,50.80
2018-06-01T10:06:50.752Z,51.19
2018-06-01T10:07:50.789Z,50.21
2018-06-01T10:08:50.811Z,50.80
2018-06-01T10:09:50.842Z,50.80
2018-06-01T10:10:50.881Z,50.63
2018-06-01T10:11:50.909Z,50.14
2018-06-01T10:12:51.148Z,50.24
2018-06-01T10:13:50.966Z,49.17
2018-06-01T10:14:50.996Z,49.85
2018-06-01T10:15:51.030Z,50.92
2018-06-01T10:16:51.060Z,49.95
2018-06-01T10:17:51.111Z,49.56
2018-06-01T10:18:51.119Z,49.85
2018-06-01T10:19:51.158Z,49.76
2018-06-01T10:20:51.180Z,49.76
2018-06-01T10:21:51.221Z,49.68
2018-06-01T10:22:51.258Z,48.80
2018-06-01T10:23:51.274Z,48.51
2018-06-01T10:24:51.304Z,48.32
2018-06-01T10:25:51.342Z,48.71
2018-06-01T10:26:51.373Z,49.00
2018-06-01T10:27:51.397Z,49.19
2018-06-01T10:28:51.433Z,48.41
2018-06-01T10:29:51.461Z,48.34
2018-06-01T10:30:51.494Z,48.24
2018-06-01T10:31:51.523Z,48.83
2018-06-01T10:32:51.562Z,49.22
2018-06-01T10:33:51.590Z,48.36
2018-06-01T10:34:51.623Z,48.56
2018-06-01T10:35:51.656Z,47.49
2018-06-01T10:36:51.678Z,47.39
2018-06-01T10:37:51.713Z,47.02
2018-06-01T10:38:51.746Z,47.41
2018-06-01T10:39:51.775Z,47.90
2018-06-01T10:40:51.804Z,47.09
2018-06-01T10:41:51.840Z,47.02
2018-06-01T10:42:51.869Z,47.31
2018-06-01T10:43:51.904Z,48.29
2018-06-01T10:44:51.930Z,47.71
2018-06-01T10:45:51.969Z,47.02
2018-06-01T10:46:51.994Z,47.02
2018-06-01T10:47:52.026Z,46.63
2018-06-01T10:48:52.059Z,46.46
2018-06-01T10:49:52.093Z,46.26
2018-06-01T10:50:52.119Z,45.97
2018-06-01T10:51:52.151Z,46.66
2018-06-01T10:52:52.180Z,45.78
2018-06-01T10:53:52.221Z,45.51
2018-06-01T10:54:52.247Z,46.00
2018-06-01T10:55:52.281Z,44.26
2018-06-01T10:56:52.308Z,43.67
2018-06-01T10:57:52.336Z,44.06
2018-06-01T10:58:52.368Z,43.77
2018-06-01T10:59:52.401Z,44.09
2018-06-01T11:00:52.432Z,43.89
2018-06-01T11:01:52.470Z,43.99
2018-06-01T11:02:52.498Z,44.01
2018-06-01T11:03:52.543Z,43.13
2018-06-01T11:04:52.562Z,42.56
2018-06-01T11:05:52.602Z,41.60
2018-06-01T11:06:52.629Z,41.03
2018-06-01T11:07:52.668Z,40.09
2018-06-01T11:08:52.695Z,39.06
2018-06-01T11:09:52.729Z,37.74
2018-06-01T11:10:52.761Z,36.10
2018-06-01T11:11:52.795Z,33.49
2018-06-01T11:12:52.829Z,33.03
2018-06-01T11:13:52.861Z,31.59
2018-06-01T11:14:52.896Z,30.04
2018-06-01T11:15:52.938Z,29.75
2018-06-01T11:16:52.977Z,28.89
2018-06-01T11:17:53.002Z,28.30
2018-06-01T11:18:53.039Z,28.78
2018-06-01T11:19:53.077Z,27.90
2018-06-01T11:20:53.115Z,28.01
2018-06-01T11:21:53.150Z,27.80
2018-06-01T11:22:53.193Z,27.14
2018-06-01T11:23:53.220Z,26.86
2018-06-01T11:24:53.258Z,26.28
2018-06-01T11:25:53.292Z,25.19
2018-06-01T11:26:53.333Z,25.50
2018-06-01T11:27:53.367Z,24.72
2018-06-01T11:28:53.402Z,23.91
2018-06-01T11:29:53.441Z,23.96
2018-06-01T11:30:53.478Z,24.00
2018-06-01T11:31:53.517Z,22.99
2018-06-01T11:32:53.552Z,22.81
2018-06-01T11:33:53.596Z,23.01
2018-06-01T11:34:53.627Z,22.42
2018-06-01T11:35:53.663Z,21.96
2018-06-01T11:36:53.705Z,22.03
2018-06-01T11:37:53.749Z,23.02
2018-06-01T11:38:53.779Z,23.02
2018-06-01T11:39:53.827Z,24.21
2018-06-01T11:40:53.855Z,23.52
2018-06-01T11:41:53.902Z,23.91
2018-06-01T11:42:53.931Z,23.41
2018-06-01T11:43:53.971Z,22.44
2018-06-01T11:44:54.006Z,21.73
2018-06-01T11:45:54.054Z,21.66
2018-06-01T11:46:54.092Z,22.05
2018-06-01T11:47:54.125Z,21.55
2018-06-01T11:48:54.166Z,21.36
2018-06-01T11:49:54.211Z,21.57
2018-06-01T11:50:54.252Z,21.08
2018-06-01T11:51:54.289Z,21.00
2018-06-01T11:52:54.321Z,21.08
2018-06-01T11:53:54.363Z,20.95
2018-06-01T11:54:54.401Z,20.48
2018-06-01T11:55:54.440Z,20.78
2018-06-01T11:56:54.475Z,20.60
2018-06-01T11:57:54.520Z,19.72
2018-06-01T11:58:54.558Z,20.13
2018-06-01T11:59:54.600Z,19.23
2018-06-01T12:00:54.639Z,18.84
2018-06-01T12:01:54.683Z,20.10
2018-06-01T12:02:54.716Z,21.45
2018-06-01T12:03:54.758Z,22.24
2018-06-01T12:04:54.795Z,23.79
2018-06-01T12:05:54.832Z,23.39
2018-06-01T12:06:54.871Z,23.02
2018-06-01T12:07:54.915Z,22.44
2018-06-01T12:08:54.961Z,22.73
2018-06-01T12:09:54.995Z,21.64
2018-06-01T12:10:55.078Z,22.25
2018-06-01T12:11:55.073Z,22.34
2018-06-01T12:12:55.110Z,22.55
2018-06-01T12:13:55.156Z,22.44
2018-06-01T12:14:55.190Z,22.92
2018-06-01T12:15:55.238Z,23.19
2018-06-01T12:16:55.275Z,23.49
2018-06-01T12:17:55.312Z,24.16
2018-06-01T12:18:55.356Z,24.84
2018-06-01T12:19:55.394Z,25.03
2018-06-01T12:20:55.431Z,25.99
2018-06-01T12:21:55.465Z,26.48
2018-06-01T12:22:55.521Z,26.77
2018-06-01T12:23:55.555Z,26.59
2018-06-01T12:24:55.586Z,26.19
2018-06-01T12:25:55.621Z,25.91
2018-06-01T12:26:55.665Z,25.33
2018-06-01T12:27:55.700Z,24.73
2018-06-01T12:28:55.738Z,24.46
2018-06-01T12:29:55.777Z,23.39
2018-06-01T12:30:55.816Z,23.99
2018-06-01T12:31:55.859Z,24.38
2018-06-01T12:32:55.893Z,23.30
2018-06-01T12:33:55.933Z,23.88
2018-06-01T12:34:55.971Z,23.69
2018-06-01T12:35:56.009Z,24.19
2018-06-01T12:36:56.057Z,23.30
2018-06-01T12:37:56.088Z,22.13
2018-06-01T12:38:56.137Z,21.87
2018-06-01T12:39:56.174Z,21.68
2018-06-01T12:40:56.203Z,21.67
2018-06-01T12:41:56.239Z,21.77
2018-06-01T12:42:56.280Z,21.08
2018-06-01T12:43:56.329Z,21.86
2018-06-01T12:44:56.358Z,20.97
2018-06-01T12:45:56.398Z,20.78
2018-06-01T12:46:56.440Z,21.08
2018-06-01T12:47:56.479Z,21.96
2018-06-01T12:48:56.526Z,21.56
2018-06-01T12:49:56.556Z,21.56
2018-06-01T12:50:56.600Z,20.59
2018-06-01T12:51:56.634Z,20.39
2018-06-01T12:52:56.675Z,19.91